Octavia, Oklahoma
Current Conditions -  °F | °C
As of 10:35 AM on Saturday 22 Nov 2014 (Local Time) from KMEZ Reporting Station
Overcast Overcast  
Wind Chill: 55°   Ceiling: 1800
Heat Index: 55°   Visibility: 10mi
Dew Point: 52°   Wind: 6mph
Humidity: 88%   Direction: 130°SE
Pressure: 30.13"   Gusts: NA
Location:  34.4828°N, 94.5801°W
Report Text: KMEZ 221635Z AUTO 13005KT 10SM BKN018 OVC022 13/11 A3013 RMK AO2 LTG DSNT W
Loading
Personal Weather Stations






























Interactive Weather Map New forecast layout! Learn more

10-Day Weather Forecast

Advertisements
Track Severe Weather on mobile